Time;durP1;ratioP1;P1;durP2;ratioP2;P2;SDS_P1;SDS_P2;PMS_P1;PMS_P2;Temp;Humidity;BMP_temperature;BMP_pressure;BME280_temperature;BME280_humidity;BME280_pressure;Samples;Min_cycle;Max_cycle;Signal;HPM_P1;HPM_P2
2022/07/24 00:01:11;;;;;;;71.20;66.17;;;13.60;1.00;;;;;;4936513;29;20662;-88
2022/07/24 00:03:38;;;;;;;160.27;143.70;;;13.50;1.00;;;;;;4936872;29;20251;-89
2022/07/24 00:06:06;;;;;;;306.47;274.20;;;13.50;1.00;;;;;;4936568;29;20284;-88
2022/07/24 00:08:33;;;;;;;343.00;284.97;;;13.40;1.00;;;;;;4936819;29;20204;-89
2022/07/24 00:11:00;;;;;;;310.77;276.77;;;13.40;1.00;;;;;;4936418;29;20207;-89
2022/07/24 00:13:27;;;;;;;271.33;245.57;;;13.40;1.00;;;;;;4936982;29;20201;-89
2022/07/24 00:15:54;;;;;;;383.83;293.90;;;13.30;1.00;;;;;;4936698;29;20660;-88
2022/07/24 00:18:22;;;;;;;353.47;270.80;;;13.30;1.00;;;;;;4936758;29;20648;-89
2022/07/24 00:20:49;;;;;;;352.40;277.87;;;13.30;1.00;;;;;;4936764;29;20213;-88
2022/07/24 00:23:16;;;;;;;305.37;263.03;;;13.30;1.00;;;;;;4936144;29;20219;-89
2022/07/24 00:25:43;;;;;;;283.77;253.47;;;13.30;99.90;;;;;;4936710;29;20199;-89
2022/07/24 00:28:10;;;;;;;299.53;263.20;;;13.30;99.90;;;;;;4936651;29;20262;-89
2022/07/24 00:30:38;;;;;;;298.57;265.47;;;13.30;99.90;;;;;;4936549;29;20269;-89
2022/07/24 00:33:05;;;;;;;313.63;257.13;;;13.30;99.90;;;;;;4936050;29;20189;-89
2022/07/24 00:35:33;;;;;;;390.70;294.37;;;13.30;99.90;;;;;;4936338;29;20200;-89
2022/07/24 00:38:01;;;;;;;375.67;287.27;;;13.30;99.90;;;;;;4936075;29;20203;-89
2022/07/24 00:40:29;;;;;;;348.03;274.17;;;13.30;99.90;;;;;;4936274;29;20687;-89
2022/07/24 00:42:57;;;;;;;330.90;272.40;;;13.30;99.90;;;;;;4935888;29;20690;-90
2022/07/24 00:45:25;;;;;;;271.87;243.53;;;13.20;99.90;;;;;;4936553;29;20191;-89
2022/07/24 00:47:52;;;;;;;230.13;205.07;;;13.20;99.90;;;;;;4935778;29;20241;-89
2022/07/24 00:50:19;;;;;;;355.60;261.13;;;13.20;99.90;;;;;;4936275;29;20219;-89
2022/07/24 00:52:48;;;;;;;256.40;227.63;;;13.10;99.90;;;;;;4936267;29;20258;-89
2022/07/24 00:55:15;;;;;;;266.40;237.63;;;13.10;99.90;;;;;;4936204;29;20290;-89
2022/07/24 00:57:45;;;;;;;218.23;195.77;;;13.10;99.90;;;;;;4935781;29;20262;-90
2022/07/24 01:00:13;;;;;;;170.20;155.20;;;13.10;99.90;;;;;;4936220;29;20643;-90
2022/07/24 01:02:41;;;;;;;248.47;211.90;;;13.00;1.00;;;;;;4936063;29;20222;-89
2022/07/24 01:05:09;;;;;;;121.40;108.53;;;13.10;1.00;;;;;;4935967;29;20641;-89
2022/07/24 01:07:36;;;;;;;108.97;99.07;;;13.10;1.00;;;;;;4936016;29;20269;-89
2022/07/24 01:10:07;;;;;;;345.43;268.93;;;13.00;1.00;;;;;;4935523;29;20238;-89
2022/07/24 01:12:36;;;;;;;270.50;217.30;;;13.10;1.00;;;;;;4935919;29;20216;-89
2022/07/24 01:15:05;;;;;;;345.43;276.63;;;13.00;1.00;;;;;;4935971;29;20202;-90
2022/07/24 01:17:32;;;;;;;363.43;276.97;;;13.00;1.00;;;;;;4935360;29;20204;-89
2022/07/24 01:20:00;;;;;;;396.93;282.70;;;12.90;1.00;;;;;;4936074;29;20246;-89
2022/07/24 01:22:29;;;;;;;371.83;276.23;;;12.90;1.00;;;;;;4935656;29;20631;-89
2022/07/24 01:24:57;;;;;;;412.83;276.20;;;12.90;1.00;;;;;;4935612;29;20258;-90
2022/07/24 01:27:24;;;;;;;390.67;275.00;;;12.80;1.00;;;;;;4935660;29;20225;-90
2022/07/24 01:29:52;;;;;;;235.13;192.47;;;12.80;1.00;;;;;;4935830;29;20191;-89
2022/07/24 01:32:19;;;;;;;314.50;255.20;;;12.80;1.00;;;;;;4935846;29;20216;-89
2022/07/24 01:34:46;;;;;;;266.00;236.30;;;12.80;1.00;;;;;;4935652;29;20209;-90
2022/07/24 01:37:13;;;;;;;275.00;245.10;;;12.80;1.00;;;;;;4935641;29;20205;-89
2022/07/24 01:39:42;;;;;;;312.13;253.03;;;12.70;1.00;;;;;;4935506;29;20194;-89
2022/07/24 01:42:09;;;;;;;255.03;228.20;;;12.70;1.00;;;;;;4935192;29;20233;-90
2022/07/24 01:44:36;;;;;;;373.00;273.13;;;12.70;1.00;;;;;;4935671;29;20206;-89
2022/07/24 01:47:03;;;;;;;177.50;160.27;;;12.60;1.00;;;;;;4935625;29;20206;-89
2022/07/24 01:49:30;;;;;;;252.13;227.03;;;12.60;1.00;;;;;;4936120;29;20197;-89
2022/07/24 01:51:57;;;;;;;220.23;198.80;;;12.60;1.00;;;;;;4939475;29;20201;-89
2022/07/24 01:54:24;;;;;;;315.37;253.07;;;12.50;1.00;;;;;;4939417;29;20215;-90
2022/07/24 01:56:53;;;;;;;300.90;256.37;;;12.50;1.00;;;;;;4939041;29;20205;-90
2022/07/24 01:59:20;;;;;;;397.90;275.07;;;12.50;1.00;;;;;;4939404;29;20640;-90
2022/07/24 02:01:47;;;;;;;309.03;250.97;;;12.50;1.00;;;;;;4939017;29;20224;-89
2022/07/24 02:04:14;;;;;;;247.37;211.47;;;12.40;1.00;;;;;;4939425;29;20579;-89
2022/07/24 02:06:41;;;;;;;259.77;232.00;;;12.50;1.00;;;;;;4939308;29;20205;-90
2022/07/24 02:09:08;;;;;;;176.77;162.10;;;12.40;1.00;;;;;;4939151;29;20643;-89
2022/07/24 02:11:35;;;;;;;202.60;185.17;;;12.40;84.00;;;;;;4939528;29;20606;-90
2022/07/24 02:14:04;;;;;;;266.70;230.03;;;12.40;99.90;;;;;;4939563;29;20681;-90
2022/07/24 02:16:31;;;;;;;299.87;251.80;;;12.40;99.90;;;;;;4939487;28;20204;-89
2022/07/24 02:18:58;;;;;;;244.43;218.50;;;12.40;99.90;;;;;;4939075;29;20721;-90
2022/07/24 02:21:25;;;;;;;187.67;170.07;;;12.40;99.90;;;;;;4939363;28;20572;-89
2022/07/24 02:23:52;;;;;;;211.27;191.97;;;12.40;99.90;;;;;;4938876;29;20594;-90
2022/07/24 02:26:19;;;;;;;202.83;184.17;;;12.40;99.90;;;;;;4938920;29;20682;-90
2022/07/24 02:28:47;;;;;;;266.73;230.83;;;12.40;99.90;;;;;;4938931;29;20234;-90
2022/07/24 02:31:15;;;;;;;240.83;215.13;;;12.30;99.90;;;;;;4939104;29;20205;-90
2022/07/24 02:33:42;;;;;;;223.70;196.30;;;12.30;99.90;;;;;;4939353;29;20205;-90
2022/07/24 02:36:10;;;;;;;240.97;205.10;;;12.30;99.90;;;;;;4939001;29;20201;-90
2022/07/24 02:38:37;;;;;;;135.93;122.33;;;12.30;99.90;;;;;;4938771;29;20201;-91
2022/07/24 02:41:04;;;;;;;223.07;200.70;;;12.30;99.90;;;;;;4938832;28;20213;-90
2022/07/24 02:43:31;;;;;;;190.83;173.07;;;12.20;99.90;;;;;;4938899;29;20213;-90
2022/07/24 02:45:58;;;;;;;287.27;247.47;;;12.20;99.90;;;;;;4938848;29;20651;-90
2022/07/24 02:48:27;;;;;;;271.43;242.37;;;12.30;99.90;;;;;;4938428;29;20213;-90
2022/07/24 02:50:54;;;;;;;137.57;125.97;;;12.20;99.90;;;;;;4938923;29;20205;-90
2022/07/24 02:53:21;;;;;;;185.67;168.73;;;12.20;1.00;;;;;;4938756;28;20208;-90
2022/07/24 02:55:48;;;;;;;153.27;136.80;;;12.20;1.00;;;;;;4938275;29;20201;-90
2022/07/24 02:58:16;;;;;;;265.83;237.33;;;12.20;1.00;;;;;;4938687;29;20258;-91
2022/07/24 03:00:43;;;;;;;192.00;172.87;;;12.20;1.00;;;;;;4938451;29;20221;-90
2022/07/24 03:03:10;;;;;;;236.00;210.40;;;12.20;1.00;;;;;;4938432;29;20217;-91
2022/07/24 03:05:39;;;;;;;207.77;187.07;;;12.20;1.00;;;;;;4938473;29;20233;-90
2022/07/24 03:08:06;;;;;;;256.47;212.57;;;12.20;1.00;;;;;;4938597;29;20260;-90
2022/07/24 03:10:33;;;;;;;252.17;224.57;;;12.20;1.00;;;;;;4938541;29;20200;-90
2022/07/24 03:13:01;;;;;;;147.33;132.40;;;12.20;1.00;;;;;;4938213;29;20296;-90
2022/07/24 03:15:28;;;;;;;101.57;93.70;;;12.30;1.00;;;;;;4938712;29;20201;-91
2022/07/24 03:17:56;;;;;;;129.83;116.67;;;12.30;20.50;;;;;;4939926;29;20601;-91
2022/07/24 03:20:25;;;;;;;154.80;141.23;;;12.30;99.90;;;;;;4939766;29;20218;-91
2022/07/24 03:23:06;;;;;;;124.87;114.00;;;12.40;99.90;;;;;;4940823;29;20230;-90
2022/07/24 03:25:33;;;;;;;127.37;115.90;;;12.40;1.00;;;;;;4940649;29;20323;-89
2022/07/24 03:28:00;;;;;;;69.77;63.37;;;12.40;99.90;;;;;;4940244;29;20691;-90
2022/07/24 03:30:28;;;;;;;40.20;37.53;;;12.50;1.00;;;;;;4942011;29;20290;-93
2022/07/24 03:32:55;;;;;;;44.50;41.10;;;12.50;1.00;;;;;;4939187;29;20201;-90
2022/07/24 03:35:22;;;;;;;15.03;13.60;;;12.60;1.00;;;;;;4941049;29;20622;-90
2022/07/24 03:37:57;;;;;;;59.60;54.40;;;12.70;1.00;;;;;;4940800;29;20211;-93
2022/07/24 03:40:25;;;;;;;21.57;19.67;;;12.80;1.00;;;;;;4940128;29;20189;-88
2022/07/24 03:42:52;;;;;;;4.43;3.00;;;12.80;1.00;;;;;;4940533;29;20214;-89
2022/07/24 03:45:19;;;;;;;5.20;3.00;;;12.90;1.00;;;;;;4940614;29;20203;-91
2022/07/24 03:47:46;;;;;;;6.93;3.03;;;13.00;1.00;;;;;;4940648;29;20206;-91
2022/07/24 03:50:13;;;;;;;5.47;3.10;;;13.00;1.00;;;;;;4940829;29;20602;-89
2022/07/24 03:52:40;;;;;;;5.60;3.70;;;13.10;1.00;;;;;;4940084;29;20206;-89
2022/07/24 03:55:09;;;;;;;4.70;3.37;;;13.10;1.00;;;;;;4941773;29;20617;-92
2022/07/24 04:00:15;;;;;;;4.97;3.30;;;13.30;1.00;;;;;;6026828;23;20265;-91
2022/07/24 04:02:45;;;;;;;5.67;2.50;;;13.90;99.90;;;;;;4937576;29;20225;-92
2022/07/24 04:05:13;;;;;;;3.77;1.90;;;14.70;99.90;;;;;;4939068;29;20187;-91
2022/07/24 04:07:40;;;;;;;4.05;1.90;;;15.60;92.10;;;;;;4940038;29;20206;-90
2022/07/24 04:10:10;;;;;;;4.38;2.00;;;16.50;99.90;;;;;;4940223;29;20278;-91
2022/07/24 04:12:37;;;;;;;1.80;1.60;;;17.50;1.00;;;;;;4941609;29;20201;-92
2022/07/24 04:15:05;;;;;;;3.75;1.52;;;18.30;99.90;;;;;;4941478;29;20256;-91
2022/07/24 04:17:32;;;;;;;2.70;1.48;;;19.10;1.00;;;;;;4940193;29;20189;-89
2022/07/24 04:20:02;;;;;;;2.23;1.50;;;19.80;1.00;;;;;;4940791;29;20461;-93
2022/07/24 04:22:44;;;;;;;2.25;1.50;;;20.40;99.90;;;;;;4939395;29;20526;-90
2022/07/24 04:25:13;;;;;;;4.70;1.52;;;21.10;99.90;;;;;;4937712;29;20598;-94
2022/07/24 04:27:40;;;;;;;1.98;1.15;;;21.70;1.00;;;;;;4936914;29;20227;-89
2022/07/24 04:30:14;;;;;;;1.75;1.15;;;22.30;99.90;;;;;;4937589;29;20639;-91
2022/07/24 04:32:45;;;;;;;2.45;1.27;;;22.90;1.00;;;;;;4938837;29;20241;-91
2022/07/24 04:35:14;;;;;;;2.20;1.75;;;23.50;1.00;;;;;;4937624;29;20211;-92
2022/07/24 04:37:42;;;;;;;2.65;1.45;;;24.00;1.00;;;;;;4936874;29;20201;-93
2022/07/24 04:40:17;;;;;;;2.03;1.13;;;24.50;99.90;;;;;;4938352;28;20205;-88
2022/07/24 04:42:44;;;;;;;2.25;1.30;;;24.90;68.20;;;;;;4936328;28;20723;-93
2022/07/24 04:45:15;;;;;;;;;;;25.40;1.00;;;;;;4938976;28;20208;-90
2022/07/24 04:47:42;;;;;;;2.95;1.20;;;25.90;1.00;;;;;;4937682;29;20144;-88
2022/07/24 04:50:10;;;;;;;2.65;1.20;;;26.40;1.00;;;;;;4936574;29;20208;-93
2022/07/24 04:52:44;;;;;;;;;;;26.70;1.00;;;;;;4939207;28;20201;-92
2022/07/24 04:55:18;;;;;;;;;;;26.90;1.00;;;;;;4939504;29;19937;-89
2022/07/24 04:57:45;;;;;;;;;;;27.20;1.00;;;;;;4938620;29;19933;-92
2022/07/24 05:00:14;;;;;;;1.70;0.95;;;27.50;1.00;;;;;;4937786;29;20059;-89
2022/07/24 05:02:41;;;;;;;2.08;1.15;;;27.70;1.00;;;;;;4937833;29;20208;-91
2022/07/24 05:05:09;;;;;;;2.50;1.15;;;28.00;1.00;;;;;;4935767;29;20200;-91
2022/07/24 05:08:02;;;;;;;20.52;14.15;;;28.30;99.90;;;;;;4937715;28;20201;-91
2022/07/24 05:10:34;;;;;;;5.15;4.80;;;28.60;99.90;;;;;;4938756;29;20186;-92
2022/07/24 05:13:01;;;;;;;2.80;2.60;;;29.00;99.90;;;;;;4937680;29;20378;-93
2022/07/24 05:15:29;;;;;;;2.47;2.25;;;29.30;99.90;;;;;;4937075;29;20193;-95
2022/07/24 05:17:56;;;;;;;3.25;1.95;;;29.50;99.90;;;;;;4936643;29;20201;-90
2022/07/24 05:20:23;;;;;;;;;;;29.80;99.90;;;;;;4937266;29;20197;-90
2022/07/24 05:22:50;;;;;;;18.48;17.17;;;30.20;99.90;;;;;;4937319;29;20057;-94
2022/07/24 05:25:18;;;;;;;16.00;14.95;;;30.40;99.90;;;;;;4937492;29;20292;-89
2022/07/24 05:27:46;;;;;;;25.38;23.50;;;30.70;99.90;;;;;;4935428;29;20213;-87
2022/07/24 05:30:14;;;;;;;34.17;31.33;;;30.90;99.90;;;;;;4935486;29;20209;-93
2022/07/24 05:32:47;;;;;;;18.30;13.70;;;31.20;99.90;;;;;;4935380;29;20235;-88
2022/07/24 05:35:14;;;;;;;26.42;19.00;;;31.50;99.90;;;;;;4935618;29;20203;-94
2022/07/24 05:37:47;;;;;;;57.63;34.40;;;31.90;99.90;;;;;;4937500;29;20200;-88
2022/07/24 05:40:15;;;;;;;105.82;61.50;;;32.30;99.90;;;;;;4936941;29;20541;-94
2022/07/24 05:42:42;;;;;;;49.38;25.70;;;32.60;99.90;;;;;;4937028;29;20689;-89
2022/07/24 05:45:23;;;;;;;52.75;27.75;;;33.00;99.90;;;;;;4936585;29;20295;-90
2022/07/24 05:47:50;;;;;;;147.55;58.28;;;33.30;99.90;;;;;;4935243;29;20234;-88
2022/07/24 05:50:18;;;;;;;209.40;77.90;;;33.60;99.90;;;;;;4936245;29;20204;-89
2022/07/24 05:52:45;;;;;;;99.43;39.13;;;33.70;99.90;;;;;;4936359;29;20917;-90
2022/07/24 05:55:12;;;;;;;168.20;43.08;;;33.60;99.90;;;;;;4938016;29;20220;-88
2022/07/24 05:57:39;;;;;;;54.78;18.73;;;33.40;99.90;;;;;;4936135;29;20259;-92
2022/07/24 06:00:08;;;;;;;34.10;13.73;;;33.40;99.90;;;;;;4934726;29;20223;-89
2022/07/24 06:02:45;;;;;;;16.23;5.60;;;33.40;99.90;;;;;;4956880;28;20268;-91
2022/07/24 06:08:26;;;;;;;46.47;14.73;;;33.60;99.90;;;;;;4915485;29;20655;-94
2022/07/24 06:11:07;;;;;;;65.65;20.42;;;33.60;99.90;;;;;;4947691;28;20185;-93
2022/07/24 06:13:34;;;;;;;23.00;8.68;;;33.30;99.90;;;;;;4957962;28;20235;-90
2022/07/24 06:16:25;;;;;;;61.97;56.10;;;33.30;99.90;;;;;;4954224;29;20208;-94
2022/07/24 06:18:54;;;;;;;124.47;112.57;;;32.60;99.90;;;;;;4952253;28;20244;-89
2022/07/24 06:21:21;;;;;;;30.30;27.33;;;31.80;99.90;;;;;;4949097;29;20638;-91
2022/07/24 06:23:48;;;;;;;23.15;11.65;;;31.40;99.90;;;;;;4953793;29;20255;-89
2022/07/24 06:26:45;;;;;;;13.77;5.68;;;31.60;99.90;;;;;;4961117;29;20208;-96
2022/07/24 06:35:34;;;;;;;58.78;54.63;;;34.00;99.90;;;;;;4933691;28;20256;-90
2022/07/24 06:38:57;;;;;;;45.53;40.78;;;33.80;99.90;;;;;;4962904;28;20193;-94
2022/07/24 06:42:12;;;;;;;38.78;36.13;;;34.00;99.90;;;;;;4963037;28;20189;-94
2022/07/24 06:44:40;;;;;;;185.00;167.27;;;34.60;99.90;;;;;;4904814;29;20210;-91
2022/07/24 06:47:07;;;;;;;325.48;291.00;;;34.00;99.90;;;;;;4899214;29;20780;-88
2022/07/24 06:50:39;;;;;;;234.45;205.98;;;33.20;99.90;;;;;;4959397;29;20172;-93
2022/07/24 06:53:08;;;;;;;137.10;124.50;;;32.50;99.90;;;;;;4952888;28;20235;-87
2022/07/24 06:55:35;;;;;;;77.57;71.00;;;32.10;99.90;;;;;;4951674;29;20184;-87
2022/07/24 06:58:02;;;;;;;24.35;21.98;;;31.80;99.90;;;;;;4958538;29;20561;-87
2022/07/24 07:00:49;;;;;;;41.40;37.53;;;31.90;99.90;;;;;;4967190;29;20181;-91
2022/07/24 07:03:17;;;;;;;10.88;9.75;;;31.60;99.90;;;;;;4964158;29;20184;-89
2022/07/24 07:05:44;;;;;;;8.20;7.45;;;31.80;99.90;;;;;;4937871;29;20205;-86
2022/07/24 07:08:12;;;;;;;4.32;3.92;;;31.90;99.90;;;;;;4937988;29;20208;-86
2022/07/24 07:10:39;;;;;;;9.23;8.52;;;32.20;99.90;;;;;;4937701;29;20208;-86
2022/07/24 07:13:06;;;;;;;91.25;84.45;;;32.00;99.90;;;;;;4937043;29;20563;-85
2022/07/24 07:15:33;;;;;;;257.55;238.27;;;31.40;99.90;;;;;;4940460;29;20217;-86
2022/07/24 07:18:00;;;;;;;101.60;94.65;;;30.50;99.90;;;;;;4940400;29;20200;-86
2022/07/24 07:20:27;;;;;;;42.40;39.55;;;30.30;99.90;;;;;;4938105;29;20185;-86
2022/07/24 07:22:54;;;;;;;65.78;61.28;;;30.60;99.90;;;;;;4939754;29;20204;-88
2022/07/24 07:25:23;;;;;;;153.18;141.77;;;30.60;99.90;;;;;;4943218;29;20208;-88
2022/07/24 07:27:50;;;;;;;97.32;90.70;;;30.10;99.90;;;;;;4940898;29;20201;-88
2022/07/24 07:30:17;;;;;;;77.18;71.70;;;29.70;99.90;;;;;;4938963;29;20666;-88
2022/07/24 07:32:44;;;;;;;14.68;13.63;;;29.30;99.90;;;;;;4937869;29;20260;-89
2022/07/24 07:35:11;;;;;;;2.65;2.05;;;29.30;99.90;;;;;;4936865;29;20216;-88
2022/07/24 07:37:38;;;;;;;3.40;3.20;;;30.30;99.90;;;;;;4937230;29;20284;-86
2022/07/24 07:40:07;;;;;;;13.82;12.90;;;31.30;99.90;;;;;;4936918;29;20221;-86
2022/07/24 07:42:35;;;;;;;12.88;11.98;;;31.60;99.90;;;;;;4937135;29;20224;-86
2022/07/24 07:47:57;;;;;;;213.18;197.88;;;30.30;99.90;;;;;;4955819;28;20216;-89
2022/07/24 07:50:39;;;;;;;181.85;169.02;;;29.30;99.90;;;;;;4960592;29;20265;-92
2022/07/24 07:53:20;;;;;;;;;;;;;;;;;;;;;
2022/07/24 07:58:46;;;;;;;52.88;49.22;;;27.40;99.90;;;;;;4955463;29;20188;-90
2022/07/24 08:01:17;;;;;;;151.40;140.95;;;26.80;99.90;;;;;;4954223;29;20193;-90
2022/07/24 08:04:11;;;;;;;189.30;176.10;;;26.20;99.90;;;;;;4949463;29;20278;-90
2022/07/24 08:06:45;;;;;;;154.45;143.45;;;25.80;99.90;;;;;;4949465;29;20177;-88
2022/07/24 08:12:32;;;;;;;21.73;20.23;;;25.40;99.90;;;;;;4955655;29;20241;-89
2022/07/24 08:15:10;;;;;;;46.95;43.75;;;25.30;99.90;;;;;;4955608;29;20209;-88
2022/07/24 08:17:45;;;;;;;57.97;54.03;;;25.20;99.90;;;;;;4958376;29;20192;-89
2022/07/24 08:20:13;;;;;;;60.45;56.42;;;25.10;99.90;;;;;;4959529;29;20205;-90
2022/07/24 08:25:54;;;;;;;2.92;2.58;;;25.40;99.90;;;;;;4958104;29;20177;-88
2022/07/24 08:28:22;;;;;;;3.65;3.33;;;26.40;99.90;;;;;;4893110;29;20195;-85
2022/07/24 08:30:51;;;;;;;2.60;1.00;;;27.80;99.90;;;;;;4958584;28;20109;-90
2022/07/24 08:33:31;;;;;;;1.50;1.40;;;28.70;99.90;;;;;;4959310;29;20192;-91
2022/07/24 08:39:07;;;;;;;193.00;180.20;;;31.10;99.90;;;;;;4926105;29;20120;-87
2022/07/24 08:41:35;;;;;;;33.38;30.98;;;32.20;99.90;;;;;;4938127;29;20193;-86
2022/07/24 08:44:04;;;;;;;13.02;12.02;;;33.00;99.90;;;;;;4942540;29;20321;-85
2022/07/24 08:46:32;;;;;;;6.90;6.53;;;33.20;99.90;;;;;;4947718;29;20678;-86
2022/07/24 08:49:00;;;;;;;2.78;2.40;;;33.10;99.90;;;;;;4946627;29;20228;-86
2022/07/24 08:51:33;;;;;;;15.48;14.48;;;33.60;99.90;;;;;;4949049;29;20196;-86
2022/07/24 08:54:19;;;;;;;3.28;1.95;;;34.40;99.90;;;;;;4943195;29;20200;-90
2022/07/24 08:56:46;;;;;;;5.25;4.95;;;34.90;99.90;;;;;;4945222;29;20184;-87
2022/07/24 08:59:18;;;;;;;80.55;75.18;;;35.50;99.90;;;;;;4942819;29;20673;-87
2022/07/24 09:01:48;;;;;;;134.07;124.50;;;36.20;99.90;;;;;;4944037;29;20555;-87
2022/07/24 09:04:36;;;;;;;154.68;143.57;;;36.80;99.90;;;;;;4937393;29;20180;-90
2022/07/24 09:07:09;;;;;;;203.48;188.57;;;37.20;99.90;;;;;;4936684;29;20203;-90
2022/07/24 09:09:37;;;;;;;355.05;328.10;;;37.50;99.90;;;;;;4935772;29;20275;-87
2022/07/24 09:12:10;;;;;;;241.80;223.27;;;37.80;99.90;;;;;;4936100;29;20197;-85
2022/07/24 09:14:39;;;;;;;182.68;169.15;;;37.80;99.90;;;;;;4935465;29;20224;-85
2022/07/24 09:17:10;;;;;;;214.82;198.50;;;37.80;99.90;;;;;;4935660;29;20220;-85
2022/07/24 09:19:47;;;;;;;140.20;129.93;;;37.90;99.90;;;;;;4942253;29;20204;-87
2022/07/24 09:22:25;;;;;;;130.88;120.93;;;37.80;99.90;;;;;;4938247;29;20180;-87
2022/07/24 09:25:08;;;;;;;498.65;460.67;;;38.00;99.90;;;;;;4938701;29;20712;-89
2022/07/24 09:27:36;;;;;;;190.35;176.02;;;37.80;99.90;;;;;;4937644;29;20251;-85
2022/07/24 09:30:11;;;;;;;172.55;159.75;;;37.40;99.90;;;;;;4935757;29;20196;-87
2022/07/24 09:32:40;;;;;;;528.95;488.95;;;37.20;99.90;;;;;;4941815;29;20239;-88
2022/07/24 09:35:09;;;;;;;732.08;676.22;;;37.00;99.90;;;;;;4938344;29;20693;-90
2022/07/24 09:38:03;;;;;;;524.50;484.70;;;36.70;99.90;;;;;;4945588;29;20181;-91
2022/07/24 09:40:33;;;;;;;962.00;889.00;;;36.30;99.90;;;;;;4940871;29;20275;-85
2022/07/24 09:43:22;;;;;;;778.03;718.72;;;36.20;99.90;;;;;;4935449;29;20193;-86
2022/07/24 09:45:55;;;;;;;966.33;893.88;;;35.70;99.90;;;;;;4935160;29;20642;-85
2022/07/24 09:48:25;;;;;;;1068.28;982.20;;;35.10;99.90;;;;;;4935452;29;20192;-85
2022/07/24 09:50:54;;;;;;;879.80;814.60;;;34.30;99.90;;;;;;4935049;29;20204;-85
2022/07/24 09:53:23;;;;;;;735.30;680.25;;;33.60;99.90;;;;;;4946049;29;20335;-91
2022/07/24 09:56:06;;;;;;;656.88;607.28;;;33.20;99.90;;;;;;4954533;29;20244;-84
2022/07/24 09:58:39;;;;;;;693.30;641.45;;;32.80;99.90;;;;;;4945071;29;20194;-85
2022/07/24 10:01:07;;;;;;;635.95;588.40;;;32.50;99.90;;;;;;4939730;29;20285;-86
2022/07/24 10:03:47;;;;;;;640.85;592.63;;;32.30;99.90;;;;;;4942773;29;20196;-89
2022/07/24 10:06:19;;;;;;;593.55;549.45;;;32.00;99.90;;;;;;4943067;29;20208;-86
2022/07/24 10:08:50;;;;;;;777.55;720.47;;;31.70;99.90;;;;;;4946330;29;20640;-86
2022/07/24 10:11:18;;;;;;;895.05;829.70;;;31.30;99.90;;;;;;4946346;28;20188;-85
2022/07/24 10:13:46;;;;;;;889.25;823.70;;;31.10;99.90;;;;;;4938586;29;20637;-86
2022/07/24 10:16:39;;;;;;;892.33;826.83;;;30.90;99.90;;;;;;4938493;29;20574;-86
2022/07/24 10:19:12;;;;;;;951.80;880.53;;;30.70;99.90;;;;;;4936224;29;20209;-85
2022/07/24 10:21:41;;;;;;;789.03;730.83;;;30.50;99.90;;;;;;4919515;29;20186;-85
2022/07/24 10:24:51;;;;;;;750.80;695.88;;;30.20;99.90;;;;;;4920247;29;20201;-86
2022/07/24 10:27:26;;;;;;;784.08;726.58;;;30.10;99.90;;;;;;4919442;29;20284;-86
2022/07/24 10:29:55;;;;;;;579.92;536.92;;;30.00;99.90;;;;;;4938759;29;20181;-86
2022/07/24 10:32:22;;;;;;;585.03;541.33;;;29.90;99.90;;;;;;4938685;29;20220;-85
2022/07/24 10:34:59;;;;;;;491.35;455.33;;;29.80;99.90;;;;;;4938280;29;20686;-88
2022/07/24 10:37:52;;;;;;;456.55;423.45;;;29.70;99.90;;;;;;4957110;29;20228;-89
2022/07/24 10:40:26;;;;;;;439.55;407.60;;;29.70;99.90;;;;;;4943585;29;20192;-87
2022/07/24 10:43:13;;;;;;;381.08;353.77;;;29.60;99.90;;;;;;4939503;29;20189;-87
2022/07/24 10:45:43;;;;;;;346.70;321.73;;;29.50;99.90;;;;;;4918965;29;20181;-87
2022/07/24 10:48:30;;;;;;;429.95;398.95;;;29.50;99.90;;;;;;4926720;29;20288;-89
2022/07/24 10:54:56;;;;;;;585.85;541.80;;;29.10;99.90;;;;;;4948347;29;20189;-90
2022/07/24 10:57:58;;;;;;;542.45;501.65;;;29.10;99.90;;;;;;4938684;29;20204;-92
2022/07/24 11:00:55;;;;;;;583.17;539.25;;;29.10;99.90;;;;;;4961684;29;20219;-90
2022/07/24 11:03:35;;;;;;;689.17;637.67;;;29.00;99.90;;;;;;4960479;29;20196;-90
2022/07/24 11:07:00;;;;;;;473.52;438.40;;;28.90;99.90;;;;;;4956269;29;20229;-90
2022/07/24 11:09:56;;;;;;;647.70;598.95;;;28.80;99.90;;;;;;4947792;29;20244;-90
2022/07/24 11:12:37;;;;;;;603.75;558.28;;;28.50;99.90;;;;;;4956603;29;20221;-85
2022/07/24 11:18:15;;;;;;;671.05;621.13;;;28.30;99.90;;;;;;4961132;29;20193;-87
2022/07/24 11:20:42;;;;;;;716.13;662.85;;;28.20;99.90;;;;;;4947307;29;20189;-87
2022/07/24 11:23:43;;;;;;;763.95;706.72;;;28.20;99.90;;;;;;4949253;29;20560;-85
2022/07/24 11:26:40;;;;;;;779.85;721.63;;;28.10;99.90;;;;;;4961036;29;20188;-89
2022/07/24 11:29:15;;;;;;;765.05;707.45;;;28.00;99.90;;;;;;4962103;29;20192;-86
2022/07/24 11:31:43;;;;;;;622.08;575.20;;;28.10;99.90;;;;;;4961732;29;20236;-88
2022/07/24 11:34:21;;;;;;;627.90;580.25;;;28.10;99.90;;;;;;4964317;29;20172;-91
2022/07/24 11:36:53;;;;;;;586.60;542.75;;;28.20;99.90;;;;;;4961803;29;20238;-89
2022/07/24 11:39:29;;;;;;;523.83;485.08;;;28.20;99.90;;;;;;4959547;29;20177;-85
2022/07/24 11:41:58;;;;;;;544.83;504.20;;;28.20;99.90;;;;;;4948358;29;20236;-86
2022/07/24 11:44:28;;;;;;;501.20;464.13;;;28.20;99.90;;;;;;4947814;29;20255;-90
2022/07/24 11:46:57;;;;;;;519.75;481.05;;;28.30;99.90;;;;;;4945028;29;20283;-85
2022/07/24 11:49:25;;;;;;;513.38;475.15;;;28.20;99.90;;;;;;4951315;29;20185;-86
2022/07/24 11:52:01;;;;;;;531.90;492.02;;;28.20;99.90;;;;;;4946146;29;20177;-85
2022/07/24 11:54:37;;;;;;;485.95;450.17;;;28.10;99.90;;;;;;4948366;29;20196;-89
2022/07/24 11:57:04;;;;;;;531.05;491.48;;;28.10;99.90;;;;;;4950503;29;20244;-89
2022/07/24 11:59:42;;;;;;;640.58;592.83;;;28.10;99.90;;;;;;4947882;29;20191;-90
2022/07/24 12:02:11;;;;;;;656.80;607.47;;;28.20;99.90;;;;;;4952614;29;20208;-89
2022/07/24 12:04:40;;;;;;;709.05;656.15;;;28.20;99.90;;;;;;4958685;28;20204;-86
2022/07/24 12:07:07;;;;;;;642.28;593.97;;;28.10;99.90;;;;;;4962586;29;20685;-87
2022/07/24 12:09:44;;;;;;;624.28;577.35;;;28.10;99.90;;;;;;4958446;29;20200;-85
2022/07/24 12:12:29;;;;;;;550.10;508.80;;;28.00;99.90;;;;;;4958073;29;20234;-87
2022/07/24 12:15:03;;;;;;;504.92;467.58;;;28.00;99.90;;;;;;4960983;29;20191;-89
2022/07/24 12:17:31;;;;;;;471.52;436.63;;;28.00;99.90;;;;;;4966561;29;20259;-88
2022/07/24 12:20:03;;;;;;;444.48;411.92;;;28.20;99.90;;;;;;4954365;29;20193;-88
2022/07/24 12:22:34;;;;;;;445.67;413.25;;;28.20;99.90;;;;;;4943936;29;20546;-88
2022/07/24 12:25:03;;;;;;;451.30;418.20;;;28.20;99.90;;;;;;4940372;29;20635;-86
2022/07/24 12:27:35;;;;;;;468.27;433.63;;;28.10;99.90;;;;;;4945939;29;20654;-89
2022/07/24 12:30:43;;;;;;;463.90;429.60;;;28.00;99.90;;;;;;4938349;29;20224;-88
2022/07/24 12:33:21;;;;;;;484.90;448.77;;;28.00;99.90;;;;;;4938038;29;20710;-89
2022/07/24 12:35:58;;;;;;;473.73;438.83;;;28.10;99.90;;;;;;4947426;29;20232;-89
2022/07/24 12:38:27;;;;;;;471.80;436.85;;;28.20;99.90;;;;;;4939929;29;20677;-85
2022/07/24 12:41:05;;;;;;;491.08;454.63;;;28.20;99.90;;;;;;4945612;29;20219;-87
2022/07/24 12:43:32;;;;;;;484.73;448.55;;;28.20;99.90;;;;;;4944955;29;20189;-86
2022/07/24 12:46:07;;;;;;;357.42;332.05;;;28.30;99.90;;;;;;4945995;29;20692;-86
2022/07/24 12:48:34;;;;;;;437.90;405.80;;;28.30;99.90;;;;;;4943393;29;20658;-90
2022/07/24 12:51:04;;;;;;;329.67;305.92;;;28.30;99.90;;;;;;4921448;29;20190;-87
2022/07/24 12:56:34;;;;;;;375.00;348.20;;;28.20;99.90;;;;;;4921957;29;20789;-89
2022/07/24 12:59:04;;;;;;;349.30;324.50;;;28.20;99.90;;;;;;4928309;29;20197;-84
2022/07/24 13:01:52;;;;;;;401.77;372.63;;;28.00;99.90;;;;;;4931883;29;20201;-88
2022/07/24 13:04:21;;;;;;;407.88;378.15;;;28.00;99.90;;;;;;4929589;29;20170;-87
2022/07/24 13:06:58;;;;;;;380.95;353.88;;;28.00;99.90;;;;;;4944223;29;20229;-89
2022/07/24 13:09:27;;;;;;;395.63;367.23;;;28.10;99.90;;;;;;4944995;29;20666;-86
2022/07/24 13:11:57;;;;;;;398.38;369.50;;;28.10;99.90;;;;;;4942073;29;20200;-89
2022/07/24 13:14:25;;;;;;;383.52;355.90;;;28.10;99.90;;;;;;4941991;29;20197;-86
2022/07/24 13:17:01;;;;;;;407.63;378.08;;;28.00;99.90;;;;;;4940258;29;20308;-88
2022/07/24 13:19:32;;;;;;;406.08;376.55;;;28.00;99.90;;;;;;4943070;29;20189;-89
2022/07/24 13:21:59;;;;;;;356.67;330.88;;;28.00;99.90;;;;;;4938134;29;20573;-84
2022/07/24 13:24:26;;;;;;;387.30;359.60;;;28.00;99.90;;;;;;4941331;29;20208;-84